Time;durP1;ratioP1;P1;durP2;ratioP2;P2;SDS_P1;SDS_P2;PMS_P1;PMS_P2;Temp;Humidity;BMP_temperature;BMP_pressure;BME280_temperature;BME280_humidity;BME280_pressure;Samples;Min_cycle;Max_cycle;Signal;HPM_P1;HPM_P2
2021/08/10 00:00:56;;;;;;;1.20;1.10;;;;;;;33.87;26.45;98548.00;5060560;28;20044;-85
2021/08/10 00:03:22;;;;;;;2.78;1.50;;;;;;;33.49;27.71;98550.88;5065847;28;20551;-86
2021/08/10 00:05:48;;;;;;;0.77;0.73;;;;;;;33.12;28.03;98559.69;5055827;28;20063;-86
2021/08/10 00:08:19;;;;;;;0.80;0.80;;;;;;;33.39;27.48;98556.66;5068242;28;20115;-85
2021/08/10 00:10:46;;;;;;;;;;;;;;;33.80;27.98;98543.47;5062532;28;20484;-85
2021/08/10 00:13:13;;;;;;;1.23;1.13;;;;;;;33.93;27.30;98541.16;5063387;28;19969;-85
2021/08/10 00:15:39;;;;;;;1.02;0.93;;;;;;;33.55;27.41;98552.59;5065795;28;20102;-85
2021/08/10 00:18:06;;;;;;;1.27;0.95;;;;;;;33.47;27.30;98548.50;5058201;28;20128;-85
2021/08/10 00:20:33;;;;;;;1.05;1.00;;;;;;;32.40;28.77;98535.22;5055728;28;20043;-85
2021/08/10 00:22:59;;;;;;;3.22;1.17;;;;;;;31.97;29.51;98519.44;5065764;28;20029;-85
2021/08/10 00:25:26;;;;;;;1.10;0.90;;;;;;;32.04;29.32;98509.81;5069293;28;20025;-85
2021/08/10 00:27:52;;;;;;;3.47;1.20;;;;;;;32.16;29.38;98503.09;5067821;28;20032;-85
2021/08/10 00:30:20;;;;;;;0.90;0.88;;;;;;;32.03;29.86;98496.84;5062937;28;20112;-85
2021/08/10 00:32:46;;;;;;;1.40;1.10;;;;;;;32.20;29.59;98495.22;5055577;28;20029;-85
2021/08/10 00:35:12;;;;;;;2.35;0.70;;;;;;;32.75;28.50;98496.53;5059315;28;20425;-85
2021/08/10 00:37:38;;;;;;;1.52;0.80;;;;;;;33.38;27.15;98492.44;5059091;28;20048;-85
2021/08/10 00:40:05;;;;;;;1.17;0.80;;;;;;;33.85;26.85;98474.41;5055723;28;20029;-85
2021/08/10 00:42:31;;;;;;;1.10;1.00;;;;;;;33.76;27.16;98482.28;5062044;28;20037;-85
2021/08/10 00:44:58;;;;;;;2.63;1.25;;;;;;;32.83;27.84;98487.63;5058998;28;20041;-85
2021/08/10 00:47:24;;;;;;;1.23;1.00;;;;;;;32.85;28.10;98490.78;5063919;28;20119;-85
2021/08/10 00:49:50;;;;;;;2.25;1.27;;;;;;;32.80;28.41;98497.91;5055480;28;20456;-85
2021/08/10 00:52:16;;;;;;;0.98;0.68;;;;;;;33.13;27.92;98503.56;5064005;28;20534;-85
2021/08/10 00:54:42;;;;;;;1.48;1.23;;;;;;;33.56;27.29;98502.13;5063356;28;20387;-84
2021/08/10 00:57:08;;;;;;;1.52;1.10;;;;;;;33.79;26.92;98499.19;5059445;28;20466;-85
2021/08/10 00:59:34;;;;;;;1.42;0.70;;;;;;;33.88;26.96;98507.63;5060918;28;20391;-85
2021/08/10 01:02:03;;;;;;;1.83;1.02;;;;;;;33.90;26.78;98510.78;5055089;28;20067;-85
2021/08/10 01:04:29;;;;;;;2.53;0.95;;;;;;;33.92;26.68;98507.41;5055913;28;20101;-85
2021/08/10 01:07:07;;;;;;;1.35;0.98;;;;;;;33.95;26.24;98506.44;5054554;28;20036;-85
2021/08/10 01:09:47;;;;;;;3.80;1.45;;;;;;;33.01;28.11;98505.38;5068468;28;20033;-85
2021/08/10 01:12:18;;;;;;;0.70;0.70;;;;;;;32.80;28.26;98512.13;5057186;28;20041;-85
2021/08/10 01:15:02;;;;;;;1.58;0.90;;;;;;;33.05;27.72;98511.66;5066866;28;20037;-85
2021/08/10 01:17:38;;;;;;;0.90;0.80;;;;;;;33.52;26.89;98507.97;5060370;28;20404;-85
2021/08/10 01:20:13;;;;;;;0.90;0.77;;;;;;;33.76;26.60;98500.16;5054579;28;20040;-85
2021/08/10 01:22:48;;;;;;;1.55;0.82;;;;;;;33.83;27.06;98504.69;5054543;28;20393;-85
2021/08/10 01:25:26;;;;;;;1.40;0.70;;;;;;;33.77;26.92;98500.94;5057339;28;20024;-85
2021/08/10 01:28:13;;;;;;;3.80;1.25;;;;;;;33.21;27.39;98499.84;5062347;28;20389;-85
2021/08/10 01:30:53;;;;;;;1.48;0.93;;;;;;;33.00;27.93;98498.06;5055292;28;20039;-84
2021/08/10 01:33:20;;;;;;;1.27;0.97;;;;;;;33.42;27.39;98500.78;5069990;28;20543;-85
2021/08/10 01:35:47;;;;;;;1.27;0.95;;;;;;;33.92;26.18;98507.41;5062315;28;20290;-85
2021/08/10 01:38:15;;;;;;;1.38;0.80;;;;;;;34.31;25.93;98503.19;5055981;28;20382;-85
2021/08/10 01:40:43;;;;;;;0.70;0.70;;;;;;;34.40;25.58;98499.44;5054596;28;20033;-85
2021/08/10 01:43:09;;;;;;;1.00;0.60;;;;;;;34.61;25.34;98503.94;5066153;28;20035;-85
2021/08/10 01:45:38;;;;;;;1.13;0.98;;;;;;;34.66;25.37;98500.34;5059836;28;20191;-85
2021/08/10 01:48:09;;;;;;;1.95;0.80;;;;;;;34.31;25.74;98500.31;5066023;28;20041;-84
2021/08/10 01:50:36;;;;;;;1.25;0.80;;;;;;;33.85;26.34;98500.06;5064333;28;20049;-84
2021/08/10 01:53:03;;;;;;;1.02;0.93;;;;;;;34.23;25.99;98504.88;5062349;28;20036;-85
2021/08/10 01:55:30;;;;;;;1.20;0.77;;;;;;;34.52;25.60;98509.72;5061869;28;20504;-85
2021/08/10 01:57:58;;;;;;;1.02;0.60;;;;;;;34.59;25.91;98515.81;5062810;28;20041;-85
2021/08/10 02:00:26;;;;;;;2.10;0.60;;;;;;;34.21;26.13;98510.28;5059007;28;20127;-85
2021/08/10 02:02:53;;;;;;;1.50;1.00;;;;;;;33.73;26.64;98511.72;5055002;28;20033;-85
2021/08/10 02:05:22;;;;;;;3.03;0.90;;;;;;;33.46;27.26;98517.66;5063830;28;20598;-85
2021/08/10 02:07:48;;;;;;;0.85;0.82;;;;;;;33.43;27.26;98511.69;5059972;28;20122;-85
2021/08/10 02:10:15;;;;;;;1.20;1.00;;;;;;;33.59;27.11;98504.75;5061576;28;20036;-84
2021/08/10 02:12:42;;;;;;;1.38;0.68;;;;;;;33.87;26.96;98499.56;5068339;28;20040;-85
2021/08/10 02:15:09;;;;;;;2.47;0.80;;;;;;;33.98;26.76;98489.13;5056875;28;20383;-85
2021/08/10 02:17:35;;;;;;;0.55;0.55;;;;;;;34.21;26.20;98498.88;5056354;28;20037;-85
2021/08/10 02:20:01;;;;;;;0.85;0.65;;;;;;;34.55;26.03;98495.28;5063226;28;20033;-85
2021/08/10 02:22:29;;;;;;;2.78;1.08;;;;;;;34.61;26.09;98496.16;5054633;28;20037;-85
2021/08/10 02:25:10;;;;;;;0.88;0.73;;;;;;;34.13;26.55;98499.78;5071517;28;20130;-85
2021/08/10 02:27:49;;;;;;;1.48;1.38;;;;;;;33.68;27.44;98506.75;5058781;28;20550;-85
2021/08/10 02:30:20;;;;;;;2.03;1.20;;;;;;;33.40;27.92;98506.16;5053583;28;20033;-85
2021/08/10 02:32:47;;;;;;;;;;;;;;;33.45;27.89;98502.66;5062177;28;20029;-85
2021/08/10 02:35:18;;;;;;;4.57;0.98;;;;;;;33.79;27.24;98498.41;5062633;28;19938;-85
2021/08/10 02:37:46;;;;;;;1.05;0.85;;;;;;;34.22;26.59;98503.28;5055504;28;20026;-85
2021/08/10 02:40:17;;;;;;;0.68;0.68;;;;;;;34.43;26.07;98493.53;5058590;28;20496;-85
2021/08/10 02:42:48;;;;;;;1.23;1.10;;;;;;;33.11;27.74;98497.56;5069679;28;20098;-85
2021/08/10 02:45:14;;;;;;;1.35;1.10;;;;;;;32.15;29.47;98509.28;5051717;28;20040;-85
2021/08/10 02:47:51;;;;;;;2.05;0.85;;;;;;;32.69;28.81;98509.84;5062760;28;20087;-85
2021/08/10 02:50:19;;;;;;;0.95;0.80;;;;;;;33.44;27.78;98490.47;5060873;28;20032;-84
2021/08/10 02:52:45;;;;;;;0.70;0.70;;;;;;;34.04;26.38;98492.91;5060722;28;20025;-84
2021/08/10 02:55:12;;;;;;;1.52;1.25;;;;;;;34.07;27.09;98496.84;5064139;28;20036;-84
2021/08/10 02:57:57;;;;;;;3.85;1.10;;;;;;;33.77;27.07;98493.16;5063456;28;20038;-84
2021/08/10 03:00:26;;;;;;;1.60;0.70;;;;;;;34.12;26.94;98501.84;5062050;28;20036;-84
2021/08/10 03:02:57;;;;;;;1.50;1.40;;;;;;;33.44;27.46;98489.69;5062424;28;20070;-84
2021/08/10 03:05:25;;;;;;;2.20;0.93;;;;;;;32.60;29.24;98492.06;5066973;28;20036;-84
2021/08/10 03:07:55;;;;;;;0.70;0.70;;;;;;;33.39;27.58;98487.53;5065039;28;20029;-84
2021/08/10 03:10:25;;;;;;;0.60;0.60;;;;;;;33.91;26.98;98485.91;5073103;28;20499;-84
2021/08/10 03:12:53;;;;;;;1.15;0.90;;;;;;;34.08;26.97;98479.25;5060431;28;20024;-85
2021/08/10 03:15:28;;;;;;;2.72;0.73;;;;;;;34.11;26.33;98483.16;5068814;28;20037;-85
2021/08/10 03:17:58;;;;;;;0.90;0.82;;;;;;;34.31;26.31;98486.06;5065575;28;20032;-85
2021/08/10 03:20:26;;;;;;;0.85;0.82;;;;;;;34.00;26.65;98491.50;5057265;28;20044;-85
2021/08/10 03:22:54;;;;;;;1.02;0.88;;;;;;;33.77;26.90;98481.00;5062779;28;20036;-84
2021/08/10 03:25:22;;;;;;;1.77;1.00;;;;;;;33.72;27.30;98495.94;5063705;28;20047;-84
2021/08/10 03:27:50;;;;;;;1.88;1.27;;;;;;;33.92;26.89;98493.97;5067146;28;20485;-84
2021/08/10 03:30:18;;;;;;;0.88;0.70;;;;;;;34.32;26.37;98490.50;5058688;28;20039;-84
2021/08/10 03:32:49;;;;;;;2.05;0.85;;;;;;;34.62;26.07;98486.31;5064683;28;20035;-84
2021/08/10 03:35:19;;;;;;;1.50;1.40;;;;;;;33.76;26.92;98482.28;5065863;28;20036;-84
2021/08/10 03:37:45;;;;;;;1.30;1.00;;;;;;;32.32;29.21;98479.22;5057199;28;20045;-85
2021/08/10 03:40:13;;;;;;;1.38;1.00;;;;;;;32.56;28.74;98477.19;5056517;28;20099;-84
2021/08/10 03:42:40;;;;;;;1.25;1.15;;;;;;;32.51;28.73;98472.19;5057829;28;20035;-85
2021/08/10 03:45:07;;;;;;;2.88;1.05;;;;;;;32.24;29.57;98463.78;5064730;28;20472;-84
2021/08/10 03:47:36;;;;;;;1.00;0.85;;;;;;;32.35;29.30;98461.97;5065078;28;20557;-84
2021/08/10 03:50:02;;;;;;;0.70;0.70;;;;;;;32.97;28.53;98464.94;5066368;28;20090;-84
2021/08/10 03:52:28;;;;;;;3.70;1.17;;;;;;;33.36;27.54;98469.34;5058474;28;20048;-85
2021/08/10 03:54:54;;;;;;;0.70;0.70;;;;;;;33.47;27.51;98463.06;5064177;28;20040;-85
2021/08/10 03:57:22;;;;;;;1.15;0.90;;;;;;;33.91;26.74;98461.03;5063131;28;20110;-85
2021/08/10 03:59:54;;;;;;;1.63;1.52;;;;;;;33.42;27.78;98469.47;5066123;28;20044;-84
2021/08/10 04:02:21;;;;;;;0.93;0.85;;;;;;;33.79;26.92;98478.44;5061356;28;20378;-84
2021/08/10 04:04:52;;;;;;;0.65;0.57;;;;;;;34.14;25.98;98482.19;5065925;28;20039;-84
2021/08/10 04:07:19;;;;;;;0.70;0.70;;;;;;;34.45;26.32;98479.53;5059289;28;20040;-84
2021/08/10 04:09:46;;;;;;;1.35;0.70;;;;;;;34.60;26.10;98490.94;5065931;28;20426;-85
2021/08/10 04:12:12;;;;;;;0.60;0.60;;;;;;;34.75;25.84;98483.91;5056852;28;20032;-85
2021/08/10 04:14:42;;;;;;;1.15;0.70;;;;;;;34.77;25.65;98491.97;5068048;28;20457;-85
2021/08/10 04:17:10;;;;;;;0.68;0.68;;;;;;;34.56;26.46;98494.03;5064638;28;20021;-84
2021/08/10 04:19:49;;;;;;;2.05;1.30;;;;;;;34.58;26.09;98497.16;5055943;28;20033;-84
2021/08/10 04:22:17;;;;;;;1.75;1.20;;;;;;;34.25;26.78;98499.47;5060663;28;20040;-85
2021/08/10 04:24:44;;;;;;;2.33;1.10;;;;;;;34.20;26.94;98500.16;5064130;28;20388;-85
2021/08/10 04:27:12;;;;;;;1.52;1.13;;;;;;;34.29;27.02;98502.09;5069605;28;20120;-85
2021/08/10 04:29:38;;;;;;;1.15;1.00;;;;;;;34.30;27.25;98501.63;5068474;28;20070;-85
2021/08/10 04:32:05;;;;;;;0.95;0.95;;;;;;;34.60;26.54;98511.72;5064297;28;20033;-84
2021/08/10 04:34:32;;;;;;;1.20;0.80;;;;;;;34.83;26.12;98512.81;5070652;28;20055;-85
2021/08/10 04:36:58;;;;;;;0.80;0.70;;;;;;;34.99;25.77;98514.31;5063837;28;20152;-85
2021/08/10 04:39:26;;;;;;;1.23;1.00;;;;;;;35.04;26.00;98510.75;5059006;28;20056;-85
2021/08/10 04:41:53;;;;;;;1.40;0.95;;;;;;;35.13;26.07;98504.91;5069038;28;20111;-84
2021/08/10 04:44:19;;;;;;;1.15;1.00;;;;;;;35.15;25.89;98499.50;5072472;28;20127;-84
2021/08/10 04:46:45;;;;;;;1.65;0.93;;;;;;;35.13;25.86;98499.19;5066272;28;20041;-84
2021/08/10 04:49:11;;;;;;;1.13;0.93;;;;;;;35.22;25.75;98494.13;5069392;28;20036;-84
2021/08/10 04:51:37;;;;;;;1.00;0.80;;;;;;;35.38;25.58;98495.63;5059487;28;20029;-85
2021/08/10 04:54:03;;;;;;;1.40;0.70;;;;;;;35.22;26.14;98487.63;5074921;28;20492;-85
2021/08/10 04:56:29;;;;;;;2.10;0.82;;;;;;;35.38;25.84;98493.53;5068299;28;20037;-84
2021/08/10 04:58:55;;;;;;;0.77;0.75;;;;;;;35.43;25.72;98484.25;5054975;28;20029;-84
2021/08/10 05:01:22;;;;;;;1.08;1.00;;;;;;;35.33;25.91;98487.78;5054744;28;20047;-83
2021/08/10 05:03:48;;;;;;;2.17;1.27;;;;;;;34.51;27.27;98485.34;5054969;28;20076;-84
2021/08/10 05:06:14;;;;;;;1.42;1.00;;;;;;;34.03;27.93;98476.28;5066536;28;20036;-82
2021/08/10 05:08:40;;;;;;;1.25;0.80;;;;;;;34.25;27.53;98487.28;5056530;28;20436;-84
2021/08/10 05:11:11;;;;;;;1.25;1.15;;;;;;;34.43;27.27;98487.03;5053984;28;20116;-84
2021/08/10 05:13:38;;;;;;;1.10;0.77;;;;;;;34.44;27.05;98480.06;5066808;28;20477;-84
2021/08/10 05:16:04;;;;;;;0.85;0.80;;;;;;;34.68;26.85;98494.97;5074191;28;20043;-83
2021/08/10 05:18:30;;;;;;;2.05;0.90;;;;;;;34.75;26.64;98494.53;5074071;28;20043;-84
2021/08/10 05:20:56;;;;;;;0.70;0.65;;;;;;;34.88;26.84;98494.19;5074111;28;20506;-84
2021/08/10 05:23:22;;;;;;;1.05;0.95;;;;;;;35.22;26.49;98501.91;5074023;28;20028;-84
2021/08/10 05:25:48;;;;;;;1.27;0.85;;;;;;;35.41;27.33;98508.88;5073829;28;20063;-84
2021/08/10 05:28:14;;;;;;;1.33;1.05;;;;;;;35.73;26.92;98510.56;5074099;28;20039;-84
2021/08/10 05:30:40;;;;;;;1.67;0.80;;;;;;;36.03;27.04;98508.28;5073655;28;20020;-84
2021/08/10 05:33:06;;;;;;;1.70;1.13;;;;;;;36.24;26.92;98506.13;5074336;28;20033;-84
2021/08/10 05:35:33;;;;;;;2.50;1.80;;;;;;;36.24;26.81;98514.69;5074304;28;20032;-84
2021/08/10 05:37:59;;;;;;;11.63;5.00;;;;;;;36.10;27.47;98512.75;5073903;28;20037;-84
2021/08/10 05:40:25;;;;;;;7.65;3.60;;;;;;;36.34;26.24;98518.94;5073542;28;20032;-84
2021/08/10 05:42:51;;;;;;;4.10;2.60;;;;;;;36.61;26.75;98522.03;5072325;28;20538;-84
2021/08/10 05:45:17;;;;;;;2.22;1.73;;;;;;;36.67;26.15;98516.31;5073754;28;20032;-84
2021/08/10 05:47:43;;;;;;;2.35;1.67;;;;;;;36.79;26.74;98523.69;5070676;28;20123;-84
2021/08/10 05:50:09;;;;;;;2.97;1.73;;;;;;;36.93;25.67;98522.75;5073767;28;20046;-84
2021/08/10 05:52:35;;;;;;;1.92;1.58;;;;;;;36.68;25.92;98515.03;5073943;28;20037;-84
2021/08/10 05:55:02;;;;;;;3.85;2.03;;;;;;;36.68;26.36;98509.31;5073386;28;20111;-84
2021/08/10 05:57:28;;;;;;;2.60;1.60;;;;;;;36.75;26.78;98511.69;5072618;28;20087;-84
2021/08/10 05:59:54;;;;;;;4.78;2.05;;;;;;;36.73;26.14;98511.44;5073476;28;20028;-83
2021/08/10 06:02:20;;;;;;;3.65;2.10;;;;;;;36.79;26.36;98508.59;5073556;28;20035;-84
2021/08/10 06:04:47;;;;;;;2.97;2.30;;;;;;;36.84;26.59;98511.50;5072776;28;20032;-84
2021/08/10 06:07:13;;;;;;;4.70;2.17;;;;;;;37.16;26.50;98512.19;5073553;28;20036;-84
2021/08/10 06:09:42;;;;;;;3.03;2.13;;;;;;;37.05;26.94;98518.66;5073246;28;20099;-84
2021/08/10 06:12:10;;;;;;;4.50;2.72;;;;;;;36.48;27.16;98527.38;5073781;28;20029;-84
2021/08/10 06:14:36;;;;;;;2.58;1.88;;;;;;;36.47;28.07;98525.03;5073307;28;20063;-84
2021/08/10 06:17:02;;;;;;;2.53;1.70;;;;;;;36.51;27.20;98529.22;5073074;28;20043;-84
2021/08/10 06:19:28;;;;;;;2.42;1.58;;;;;;;36.41;27.00;98532.78;5053429;28;20036;-84
2021/08/10 06:21:55;;;;;;;2.92;1.40;;;;;;;36.62;26.85;98526.44;5066188;28;20040;-84
2021/08/10 06:24:21;;;;;;;1.45;1.27;;;;;;;36.73;27.20;98526.53;5072937;28;20488;-84
2021/08/10 06:26:47;;;;;;;1.25;1.15;;;;;;;36.74;26.97;98530.94;5071957;28;20063;-84
2021/08/10 06:29:13;;;;;;;2.05;1.08;;;;;;;36.81;26.22;98523.19;5073272;28;20029;-84
2021/08/10 06:31:39;;;;;;;1.20;1.10;;;;;;;36.61;26.93;98526.97;5073236;28;20107;-84
2021/08/10 06:34:05;;;;;;;1.65;1.17;;;;;;;36.88;26.80;98517.75;5071836;28;20029;-83
2021/08/10 06:36:31;;;;;;;2.00;1.17;;;;;;;36.17;27.75;98515.16;5072978;28;20032;-84
2021/08/10 06:38:57;;;;;;;2.08;1.25;;;;;;;36.08;28.05;98509.63;5071850;28;20388;-84
2021/08/10 06:41:23;;;;;;;1.25;0.93;;;;;;;36.45;28.53;98507.59;5073093;28;20059;-84
2021/08/10 06:43:49;;;;;;;1.92;1.30;;;;;;;37.10;26.42;98505.66;5073391;28;20045;-84
2021/08/10 06:46:15;;;;;;;1.25;1.13;;;;;;;37.46;25.75;98516.22;5067949;28;20521;-84
2021/08/10 06:48:41;;;;;;;1.10;1.00;;;;;;;37.77;25.86;98515.25;5071879;28;20036;-83
2021/08/10 06:51:08;;;;;;;1.02;0.90;;;;;;;37.63;26.10;98517.06;5072510;28;20036;-83
2021/08/10 06:53:34;;;;;;;1.17;0.80;;;;;;;37.83;26.13;98513.25;5072785;28;20082;-84
2021/08/10 06:56:00;;;;;;;0.98;0.70;;;;;;;37.96;25.26;98511.44;5072814;28;20035;-84
2021/08/10 06:58:26;;;;;;;2.63;1.15;;;;;;;37.60;25.22;98514.47;5061352;28;20112;-84
2021/08/10 07:00:52;;;;;;;0.77;0.73;;;;;;;37.07;26.21;98518.94;5067323;28;20032;-84
2021/08/10 07:03:18;;;;;;;1.30;0.60;;;;;;;37.13;26.31;98516.09;5072960;28;20404;-84
2021/08/10 07:05:44;;;;;;;0.77;0.77;;;;;;;37.36;26.11;98512.81;5051532;28;20045;-84
2021/08/10 07:08:10;;;;;;;1.35;0.90;;;;;;;37.83;25.66;98516.09;5070998;28;20029;-84
2021/08/10 07:10:36;;;;;;;1.25;1.00;;;;;;;37.94;24.82;98511.16;5072814;28;20033;-84
2021/08/10 07:13:02;;;;;;;0.77;0.70;;;;;;;37.98;25.14;98508.03;5072599;28;20033;-84
2021/08/10 07:15:28;;;;;;;0.90;0.88;;;;;;;37.98;25.59;98503.06;5072082;28;20032;-84
2021/08/10 07:17:54;;;;;;;1.17;0.80;;;;;;;38.11;26.66;98507.53;5072915;28;20029;-84
2021/08/10 07:20:20;;;;;;;0.95;0.73;;;;;;;38.14;25.58;98512.97;5072353;28;20033;-84
2021/08/10 07:22:46;;;;;;;1.75;0.70;;;;;;;38.17;25.04;98523.44;5064463;28;20056;-84
2021/08/10 07:25:12;;;;;;;0.73;0.60;;;;;;;37.41;25.56;98519.09;5072416;28;20039;-84
2021/08/10 07:27:38;;;;;;;1.05;0.60;;;;;;;36.94;26.18;98517.81;5072428;28;20094;-84
2021/08/10 07:30:05;;;;;;;1.08;0.60;;;;;;;37.31;26.42;98522.16;5072624;28;20044;-84
2021/08/10 07:32:31;;;;;;;0.73;0.70;;;;;;;37.91;26.16;98515.06;5072725;28;20492;-84
2021/08/10 07:34:58;;;;;;;1.02;0.57;;;;;;;38.10;25.81;98512.47;5075579;28;20037;-84
2021/08/10 07:37:24;;;;;;;0.52;0.52;;;;;;;38.23;26.25;98504.13;5076315;28;20048;-84
2021/08/10 07:39:50;;;;;;;0.80;0.80;;;;;;;38.32;25.57;98503.13;5075843;28;20040;-84
2021/08/10 07:42:16;;;;;;;0.77;0.57;;;;;;;37.92;26.14;98498.66;5075979;28;20062;-84
2021/08/10 07:44:42;;;;;;;0.60;0.60;;;;;;;38.08;26.28;98497.88;5075694;28;20043;-84
2021/08/10 07:47:08;;;;;;;0.70;0.70;;;;;;;38.41;24.76;98492.16;5074402;28;20052;-84
2021/08/10 07:49:35;;;;;;;1.00;0.60;;;;;;;38.40;26.68;98502.06;5074507;28;20036;-84
2021/08/10 07:52:01;;;;;;;2.17;0.60;;;;;;;37.61;27.65;98507.41;5076030;28;20111;-84
2021/08/10 07:54:28;;;;;;;0.80;0.80;;;;;;;36.66;27.23;98498.41;5075982;28;20054;-84
2021/08/10 07:56:54;;;;;;;0.77;0.60;;;;;;;36.94;27.49;98500.66;5075910;28;20067;-84
2021/08/10 07:59:20;;;;;;;2.10;0.75;;;;;;;37.63;27.88;98499.88;5075687;28;20039;-84
2021/08/10 08:01:46;;;;;;;0.60;0.52;;;;;;;38.23;26.24;98497.63;5075850;28;20059;-84
2021/08/10 08:04:12;;;;;;;0.82;0.70;;;;;;;38.65;25.57;98503.84;5075143;28;20085;-84
2021/08/10 08:06:39;;;;;;;0.50;0.50;;;;;;;38.85;25.21;98490.50;5075702;28;20542;-84
2021/08/10 08:09:05;;;;;;;0.60;0.60;;;;;;;38.82;25.19;98494.44;5075773;28;20031;-84
2021/08/10 08:11:31;;;;;;;0.68;0.57;;;;;;;38.53;24.81;98487.19;5075914;28;20033;-84
2021/08/10 08:13:57;;;;;;;0.85;0.75;;;;;;;38.58;24.87;98478.53;5074234;28;20029;-84
2021/08/10 08:16:23;;;;;;;1.10;0.60;;;;;;;37.32;25.49;98488.53;5075316;28;20039;-84
2021/08/10 08:18:49;;;;;;;1.02;0.80;;;;;;;37.72;25.98;98488.16;5075250;28;20472;-84
2021/08/10 08:21:15;;;;;;;0.70;0.50;;;;;;;37.81;26.06;98479.31;5075090;28;20541;-84
2021/08/10 08:23:41;;;;;;;0.85;0.60;;;;;;;38.31;26.04;98476.50;5075213;28;20507;-84
2021/08/10 08:26:09;;;;;;;0.77;0.77;;;;;;;38.19;26.65;98474.13;5075315;28;20096;-84
2021/08/10 08:28:35;;;;;;;0.70;0.70;;;;;;;38.69;24.57;98467.03;5075370;28;20033;-84
2021/08/10 08:31:02;;;;;;;0.90;0.70;;;;;;;37.31;27.22;98472.66;5075141;28;20150;-84
2021/08/10 08:33:28;;;;;;;0.75;0.60;;;;;;;37.94;26.10;98461.63;5075235;28;20041;-84
2021/08/10 08:35:55;;;;;;;0.50;0.50;;;;;;;38.26;26.29;98462.91;5075213;28;20028;-84
2021/08/10 08:38:21;;;;;;;0.60;0.60;;;;;;;38.56;25.88;98458.19;5074979;28;20032;-84
2021/08/10 08:40:47;;;;;;;0.45;0.40;;;;;;;38.72;24.65;98458.72;5075074;28;20032;-84
2021/08/10 08:43:18;;;;;;;0.50;0.50;;;;;;;38.83;25.43;98452.94;5074993;28;20122;-85
2021/08/10 08:45:45;;;;;;;2.03;0.82;;;;;;;38.64;24.12;98452.69;5058075;28;20079;-84
2021/08/10 08:48:13;;;;;;;0.32;0.32;;;;;;;38.57;24.98;98454.03;5056160;28;20056;-84
2021/08/10 08:50:40;;;;;;;0.57;0.50;;;;;;;38.44;25.11;98461.63;5074914;28;20064;-84
2021/08/10 08:53:10;;;;;;;1.88;0.45;;;;;;;38.57;24.91;98451.16;5062797;28;20037;-84
2021/08/10 08:55:37;;;;;;;0.50;0.43;;;;;;;38.79;25.10;98453.19;5073628;28;20480;-84
2021/08/10 08:58:04;;;;;;;0.60;0.60;;;;;;;39.06;24.96;98455.19;5073547;28;20476;-84
2021/08/10 09:00:30;;;;;;;0.40;0.40;;;;;;;38.88;24.63;98444.31;5074621;28;20039;-85
2021/08/10 09:02:56;;;;;;;2.35;0.50;;;;;;;38.26;26.38;98445.69;5074511;28;20035;-84
2021/08/10 09:05:22;;;;;;;0.80;0.40;;;;;;;38.75;25.49;98449.81;5060412;28;20088;-84
2021/08/10 09:07:48;;;;;;;0.47;0.47;;;;;;;39.19;24.90;98446.00;5073309;28;20423;-85
2021/08/10 09:10:17;;;;;;;0.38;0.38;;;;;;;39.59;24.26;98445.28;5074811;28;20036;-85
2021/08/10 09:12:50;;;;;;;1.10;0.50;;;;;;;38.49;25.80;98435.78;5074327;28;20051;-85
2021/08/10 09:15:36;;;;;;;0.85;0.55;;;;;;;38.38;26.13;98438.69;5067512;28;20374;-84
2021/08/10 09:18:11;;;;;;;1.00;0.93;;;;;;;38.71;25.63;98437.84;5054136;28;20033;-84
2021/08/10 09:20:38;;;;;;;1.20;0.60;;;;;;;39.25;24.51;98435.28;5067079;28;20033;-84
2021/08/10 09:23:04;;;;;;;1.30;0.50;;;;;;;39.59;24.54;98439.53;5074143;28;20032;-84
2021/08/10 09:25:33;;;;;;;0.70;0.45;;;;;;;40.07;23.27;98436.03;5074255;28;20024;-84
2021/08/10 09:28:07;;;;;;;0.40;0.40;;;;;;;40.16;23.80;98429.94;5073786;28;20476;-84
2021/08/10 09:30:34;;;;;;;0.40;0.40;;;;;;;39.84;23.68;98435.41;5074118;28;20070;-85
2021/08/10 09:33:07;;;;;;;0.88;0.50;;;;;;;39.76;23.93;98428.69;5074301;28;20032;-84
2021/08/10 09:35:37;;;;;;;0.95;0.63;;;;;;;40.03;23.80;98429.78;5074031;28;20472;-84
2021/08/10 09:38:15;;;;;;;;;;;;;;;39.85;24.32;98427.56;5074374;28;20083;-85
2021/08/10 09:40:52;;;;;;;1.38;0.40;;;;;;;39.84;24.44;98423.91;5073690;28;19912;-84
2021/08/10 09:43:25;;;;;;;0.50;0.40;;;;;;;40.02;23.21;98422.47;5074146;28;20025;-85
2021/08/10 09:46:12;;;;;;;0.38;0.38;;;;;;;39.41;23.45;98430.72;5063259;28;20041;-85
2021/08/10 09:48:39;;;;;;;0.57;0.50;;;;;;;38.99;24.05;98421.28;5054077;28;20045;-85
2021/08/10 09:51:11;;;;;;;1.05;0.60;;;;;;;39.14;24.50;98424.56;5057193;28;20098;-85
2021/08/10 09:53:38;;;;;;;0.60;0.60;;;;;;;39.69;24.60;98416.97;5069902;28;20043;-85
2021/08/10 09:56:04;;;;;;;1.67;0.43;;;;;;;40.33;23.43;98415.38;5071988;28;20025;-85
2021/08/10 09:58:30;;;;;;;0.45;0.45;;;;;;;40.46;23.96;98412.66;5073594;28;20059;-85
2021/08/10 10:01:01;;;;;;;0.50;0.50;;;;;;;40.72;21.38;98412.88;5073375;28;20032;-85
2021/08/10 10:03:28;;;;;;;0.40;0.40;;;;;;;40.43;23.40;98408.75;5073291;28;20036;-85
2021/08/10 10:05:55;;;;;;;0.20;0.20;;;;;;;40.47;22.88;98412.09;5073581;28;20101;-85
2021/08/10 10:08:24;;;;;;;0.40;0.40;;;;;;;40.89;23.00;98409.81;5073832;28;20033;-84
2021/08/10 10:10:53;;;;;;;0.80;0.60;;;;;;;41.08;22.23;98411.38;5073759;28;20146;-85
2021/08/10 10:13:21;;;;;;;0.57;0.50;;;;;;;41.10;22.76;98413.72;5073158;28;20086;-84
2021/08/10 10:15:48;;;;;;;0.40;0.40;;;;;;;41.11;22.09;98415.28;5072926;28;20392;-85
2021/08/10 10:18:14;;;;;;;0.43;0.43;;;;;;;40.75;23.25;98414.69;5073468;28;20546;-84
2021/08/10 10:20:44;;;;;;;0.75;0.40;;;;;;;40.83;21.31;98417.72;5073039;28;20561;-85
2021/08/10 10:23:16;;;;;;;0.43;0.43;;;;;;;41.18;22.24;98417.53;5073203;28;20028;-85
2021/08/10 10:25:42;;;;;;;0.50;0.50;;;;;;;41.50;21.10;98418.41;5071982;28;20046;-85
2021/08/10 10:28:08;;;;;;;0.93;0.50;;;;;;;41.63;21.09;98411.91;5073085;28;20104;-85
2021/08/10 10:30:34;;;;;;;0.45;0.40;;;;;;;40.99;21.36;98408.88;5073142;28;20384;-84
2021/08/10 10:33:02;;;;;;;0.68;0.60;;;;;;;40.30;22.28;98404.94;5073318;28;20025;-85
2021/08/10 10:35:29;;;;;;;0.65;0.40;;;;;;;40.07;22.30;98401.53;5073035;28;20048;-85
2021/08/10 10:37:56;;;;;;;0.82;0.40;;;;;;;39.05;22.98;98395.38;5071961;28;20503;-84
2021/08/10 10:40:22;;;;;;;0.40;0.40;;;;;;;39.71;23.93;98397.09;5073063;28;20422;-85
2021/08/10 10:42:54;;;;;;;0.30;0.30;;;;;;;40.50;23.42;98390.09;5072951;28;20068;-85
2021/08/10 10:45:42;;;;;;;0.45;0.45;;;;;;;40.72;24.06;98389.84;5069052;28;20036;-85
2021/08/10 10:48:31;;;;;;;2.95;0.50;;;;;;;40.95;22.85;98390.34;5072123;28;20044;-85
2021/08/10 10:51:00;;;;;;;1.23;0.40;;;;;;;41.20;22.77;98378.19;5061021;28;20036;-85
2021/08/10 10:53:26;;;;;;;0.30;0.30;;;;;;;41.42;22.18;98387.88;5072975;28;20098;-84
2021/08/10 10:55:52;;;;;;;0.40;0.40;;;;;;;41.70;22.09;98391.13;5073070;28;20107;-85
2021/08/10 10:58:28;;;;;;;1.00;0.30;;;;;;;42.00;20.95;98385.88;5072642;28;20124;-85
2021/08/10 11:01:15;;;;;;;0.82;0.60;;;;;;;41.77;20.75;98381.81;5073238;28;20060;-85
2021/08/10 11:04:00;;;;;;;0.50;0.50;;;;;;;40.56;22.73;98370.66;5068709;28;20032;-85
2021/08/10 11:06:32;;;;;;;0.60;0.60;;;;;;;39.43;24.33;98364.88;5072836;28;20069;-84
2021/08/10 11:08:59;;;;;;;0.50;0.50;;;;;;;39.46;24.35;98360.94;5074938;28;20391;-84
2021/08/10 11:11:45;;;;;;;0.68;0.50;;;;;;;39.55;24.89;98361.38;5076637;28;20098;-85
2021/08/10 11:14:50;;;;;;;0.50;0.50;;;;;;;40.36;23.13;98365.34;5076446;28;20028;-85
2021/08/10 11:17:18;;;;;;;0.57;0.57;;;;;;;40.66;22.39;98366.84;5076626;28;20035;-85
2021/08/10 11:19:46;;;;;;;0.57;0.55;;;;;;;39.44;23.42;98361.47;5076553;28;20036;-85
2021/08/10 11:22:22;;;;;;;0.40;0.40;;;;;;;40.40;22.85;98362.97;5076427;28;20032;-85
2021/08/10 11:24:54;;;;;;;0.73;0.55;;;;;;;41.15;22.04;98364.66;5076561;28;20568;-85
2021/08/10 11:27:40;;;;;;;0.45;0.45;;;;;;;41.44;21.19;98357.16;5076014;28;20016;-84
2021/08/10 11:30:29;;;;;;;0.40;0.40;;;;;;;41.07;22.89;98355.09;5076427;28;20502;-85
2021/08/10 11:32:55;;;;;;;0.52;0.50;;;;;;;40.76;22.36;98349.19;5065528;28;20504;-85
2021/08/10 11:35:35;;;;;;;3.33;0.60;;;;;;;41.16;22.64;98356.78;5076356;28;20036;-85
2021/08/10 11:38:20;;;;;;;0.70;0.65;;;;;;;40.12;23.17;98351.00;5076301;28;20060;-85
2021/08/10 11:40:54;;;;;;;0.30;0.30;;;;;;;40.59;23.37;98349.41;5076195;28;20058;-85